createdAt,value
2018-10-01T00:01:01.016Z,10.60
2018-10-01T00:06:04.326Z,10.60
2018-10-01T00:11:07.653Z,10.70
2018-10-01T00:16:11.320Z,10.50
2018-10-01T00:21:20.515Z,10.60
2018-10-01T00:26:24.020Z,10.40
2018-10-01T00:31:27.327Z,10.20
2018-10-01T00:36:31.593Z,10.10
2018-10-01T00:41:34.928Z,10.00
2018-10-01T00:46:38.217Z,10.00
2018-10-01T00:51:41.587Z,9.90
2018-10-01T00:56:44.841Z,9.60
2018-10-01T01:01:48.306Z,9.50
2018-10-01T01:06:51.666Z,9.30
2018-10-01T01:11:55.595Z,9.20
2018-10-01T01:16:58.863Z,9.20
2018-10-01T01:22:02.316Z,9.20
2018-10-01T01:27:05.652Z,9.00
2018-10-01T01:32:09.016Z,8.80
2018-10-01T01:37:12.331Z,8.70
2018-10-01T01:42:15.675Z,8.70
2018-10-01T01:47:18.951Z,8.60
2018-10-01T01:52:22.298Z,8.60
2018-10-01T01:57:25.820Z,8.50
2018-10-01T02:02:29.143Z,8.50
2018-10-01T02:07:32.471Z,8.50
2018-10-01T02:12:35.755Z,8.40
2018-10-01T02:17:39.153Z,8.50
2018-10-01T02:22:42.855Z,8.50
2018-10-01T02:27:46.996Z,8.40
2018-10-01T02:32:50.258Z,8.30
2018-10-01T02:37:53.606Z,8.20
2018-10-01T02:42:56.976Z,8.10
2018-10-01T02:48:01.558Z,8.00
2018-10-01T02:53:10.292Z,8.10
2018-10-01T02:58:13.565Z,8.10
2018-10-01T03:03:16.869Z,8.00
2018-10-01T03:08:20.207Z,8.10
2018-10-01T03:13:24.153Z,8.10
2018-10-01T03:18:27.494Z,8.20
2018-10-01T03:23:30.780Z,8.20
2018-10-01T03:28:34.079Z,8.30
2018-10-01T03:33:37.391Z,8.30
2018-10-01T03:38:40.705Z,8.20
2018-10-01T03:43:44.059Z,8.30
2018-10-01T03:48:47.695Z,8.20
2018-10-01T03:53:50.980Z,8.20
2018-10-01T03:58:54.283Z,8.30
2018-10-01T04:03:57.692Z,8.30
2018-10-01T04:09:01.087Z,8.40
2018-10-01T04:14:04.249Z,8.40
2018-10-01T04:19:07.633Z,8.40
2018-10-01T04:24:10.973Z,8.40
2018-10-01T04:29:14.976Z,8.50
2018-10-01T04:34:19.167Z,8.60
2018-10-01T04:39:22.660Z,8.50
2018-10-01T04:44:25.890Z,8.60
2018-10-01T04:49:29.154Z,8.80
2018-10-01T04:54:32.565Z,8.80
2018-10-01T04:59:36.520Z,9.00
2018-10-01T05:04:46.444Z,9.10
2018-10-01T05:09:49.734Z,9.20
2018-10-01T05:14:53.167Z,9.20
2018-10-01T05:19:56.400Z,9.20
2018-10-01T05:24:59.649Z,9.10
2018-10-01T05:30:02.906Z,9.10
2018-10-01T05:35:06.301Z,9.20
2018-10-01T05:40:09.752Z,9.20
2018-10-01T05:45:13.057Z,9.30
2018-10-01T05:50:16.964Z,9.30
2018-10-01T05:55:20.283Z,9.30
2018-10-01T06:00:23.512Z,9.50
2018-10-01T06:05:26.839Z,9.40
2018-10-01T06:10:30.147Z,9.50
2018-10-01T06:15:33.528Z,9.50
2018-10-01T06:20:36.842Z,9.70
2018-10-01T06:25:40.179Z,9.80
2018-10-01T06:30:43.595Z,9.90
2018-10-01T06:35:46.908Z,10.00
2018-10-01T06:40:50.177Z,10.10
2018-10-01T06:45:53.477Z,10.20
2018-10-01T06:50:56.771Z,10.40
2018-10-01T06:56:00.059Z,10.60
2018-10-01T07:01:03.463Z,10.80
2018-10-01T07:06:06.768Z,10.90
2018-10-01T07:11:10.119Z,11.20
2018-10-01T07:16:14.522Z,11.40
2018-10-01T07:21:19.376Z,11.70
2018-10-01T07:26:23.440Z,11.70
2018-10-01T07:31:26.763Z,11.80
2018-10-01T07:36:30.045Z,11.90
2018-10-01T07:41:33.403Z,11.80
2018-10-01T07:46:37.452Z,12.00
2018-10-01T07:51:42.954Z,12.20
2018-10-01T07:56:46.221Z,12.50
2018-10-01T08:01:49.533Z,12.70
2018-10-01T08:06:52.872Z,12.90
2018-10-01T08:11:56.209Z,13.00
2018-10-01T08:16:59.524Z,13.20
2018-10-01T08:22:02.848Z,13.50
2018-10-01T08:27:06.355Z,13.80
2018-10-01T08:32:09.742Z,14.20
2018-10-01T08:37:13.016Z,14.30
2018-10-01T08:42:16.362Z,14.50
2018-10-01T08:47:19.773Z,14.60
2018-10-01T08:52:29.235Z,14.70
2018-10-01T08:57:32.527Z,14.80
2018-10-01T09:02:35.905Z,14.40
2018-10-01T09:07:39.156Z,14.40
2018-10-01T09:12:42.426Z,14.60
2018-10-01T09:17:46.523Z,14.80
2018-10-01T09:22:49.984Z,14.90
2018-10-01T09:27:53.295Z,15.20
2018-10-01T09:32:56.645Z,15.40
2018-10-01T09:38:00.219Z,15.90
2018-10-01T09:43:03.564Z,16.50
2018-10-01T09:48:07.066Z,17.00
2018-10-01T09:53:10.262Z,17.00
2018-10-01T09:58:13.623Z,16.80
2018-10-01T10:03:16.981Z,16.80
2018-10-01T10:08:20.273Z,16.70
2018-10-01T10:13:23.525Z,16.20
2018-10-01T10:18:26.811Z,15.90
2018-10-01T10:23:30.164Z,15.90
2018-10-01T10:28:33.489Z,16.00
2018-10-01T10:33:42.592Z,16.20
2018-10-01T10:38:45.940Z,16.10
2018-10-01T10:43:49.331Z,16.20
2018-10-01T10:48:52.639Z,16.10
2018-10-01T10:53:55.937Z,16.00
2018-10-01T10:59:00.030Z,15.70
2018-10-01T11:04:03.314Z,15.90
2018-10-01T11:09:09.105Z,16.10
2018-10-01T11:14:13.049Z,16.20
2018-10-01T11:19:17.296Z,16.50
2018-10-01T11:24:20.456Z,16.80
2018-10-01T11:29:23.907Z,17.30
2018-10-01T11:34:27.449Z,17.10
2018-10-01T11:39:31.954Z,16.60
2018-10-01T11:44:35.620Z,17.20
2018-10-01T11:49:38.997Z,17.70
2018-10-01T11:54:42.265Z,17.70
2018-10-01T11:59:45.524Z,17.30
2018-10-01T12:04:48.751Z,17.70
2018-10-01T12:09:52.210Z,17.30
2018-10-01T12:14:58.439Z,16.90
2018-10-01T12:20:02.234Z,16.60
2018-10-01T12:25:08.476Z,17.30
2018-10-01T12:30:12.407Z,18.40
2018-10-01T12:35:15.652Z,19.60
2018-10-01T12:40:19.005Z,19.20
2018-10-01T12:45:22.420Z,18.30
2018-10-01T12:50:25.696Z,18.30
2018-10-01T12:55:28.967Z,19.20
2018-10-01T13:00:32.248Z,19.80
2018-10-01T13:05:35.557Z,20.40
2018-10-01T13:10:38.813Z,20.50
2018-10-01T13:15:42.109Z,20.10
2018-10-01T13:20:45.414Z,19.50
2018-10-01T13:25:48.796Z,19.80
2018-10-01T13:30:52.041Z,19.80
2018-10-01T13:35:55.354Z,19.50
2018-10-01T13:40:58.675Z,18.70
2018-10-01T13:46:01.928Z,19.60
2018-10-01T13:51:05.244Z,20.10
2018-10-01T13:56:08.559Z,19.70
2018-10-01T14:01:11.823Z,18.70
2018-10-01T14:06:15.205Z,18.20
2018-10-01T14:11:18.430Z,17.90
2018-10-01T14:16:21.742Z,16.90
2018-10-01T14:21:24.964Z,16.00
2018-10-01T14:26:28.208Z,16.10
2018-10-01T14:31:31.515Z,16.20
2018-10-01T14:36:34.813Z,16.20
2018-10-01T14:41:38.106Z,16.10
2018-10-01T14:46:41.439Z,15.90
2018-10-01T14:51:44.717Z,15.00
2018-10-01T14:56:47.986Z,14.00
2018-10-01T15:01:51.240Z,13.60
2018-10-01T15:06:54.581Z,13.00
2018-10-01T15:11:57.888Z,12.50
2018-10-01T15:17:01.973Z,12.20
2018-10-01T15:22:05.223Z,12.30
2018-10-01T15:27:08.533Z,12.30
2018-10-01T15:32:11.813Z,12.20
2018-10-01T15:37:16.041Z,12.00
2018-10-01T15:42:19.324Z,11.90
2018-10-01T15:47:22.571Z,12.10
2018-10-01T15:52:26.660Z,12.20
2018-10-01T15:57:29.901Z,12.30
2018-10-01T16:02:33.713Z,12.10
2018-10-01T16:07:37.055Z,12.30
2018-10-01T16:12:40.354Z,12.40
2018-10-01T16:17:43.631Z,12.40
2018-10-01T16:22:46.976Z,12.50
2018-10-01T16:27:50.308Z,12.70
2018-10-01T16:32:53.564Z,12.60
2018-10-01T16:37:56.825Z,12.70
2018-10-01T16:43:00.542Z,12.70
2018-10-01T16:48:03.916Z,12.50
2018-10-01T16:53:07.364Z,12.60
2018-10-01T16:58:13.226Z,12.60
2018-10-01T17:03:16.598Z,12.60
2018-10-01T17:08:19.841Z,12.70
2018-10-01T17:13:23.860Z,12.50
2018-10-01T17:18:27.219Z,12.30
2018-10-01T17:23:30.713Z,12.10
2018-10-01T17:28:37.079Z,12.00
2018-10-01T17:33:40.392Z,11.90
2018-10-01T17:38:44.041Z,11.90
2018-10-01T17:43:47.331Z,11.90
2018-10-01T17:49:37.415Z,11.70
2018-10-01T17:54:41.787Z,11.60
2018-10-01T17:59:45.927Z,11.40
2018-10-01T18:04:59.933Z,11.20
2018-10-01T18:10:08.085Z,11.10
2018-10-01T18:16:21.743Z,11.30
2018-10-01T18:21:29.913Z,11.40
2018-10-01T18:26:33.367Z,11.40
2018-10-01T18:31:36.680Z,11.30
2018-10-01T18:37:06.330Z,11.30
2018-10-01T18:42:18.957Z,11.30
2018-10-01T18:47:29.082Z,11.10
2018-10-01T18:52:35.585Z,11.10
2018-10-01T19:03:12.296Z,11.20
2018-10-01T19:08:17.610Z,11.20
2018-10-01T19:13:24.202Z,11.00
2018-10-01T19:18:27.600Z,11.20
2018-10-01T19:23:35.001Z,11.20
2018-10-01T19:28:38.624Z,11.10
2018-10-01T19:33:41.971Z,11.00
2018-10-01T19:38:45.278Z,11.00
2018-10-01T19:43:57.368Z,10.70
2018-10-01T19:49:13.487Z,10.80
2018-10-01T19:54:18.326Z,10.80
2018-10-01T19:59:26.541Z,10.80
2018-10-01T20:04:36.846Z,10.80
2018-10-01T20:09:43.104Z,10.70
2018-10-01T20:14:46.422Z,10.50
2018-10-01T20:19:50.900Z,10.40
2018-10-01T20:24:55.209Z,10.40
2018-10-01T20:30:00.560Z,10.20
2018-10-01T20:35:04.048Z,10.10
2018-10-01T20:40:07.885Z,10.10
2018-10-01T20:45:11.256Z,10.10
2018-10-01T20:50:15.187Z,10.10
2018-10-01T20:55:18.560Z,10.00
2018-10-01T21:00:21.855Z,9.90
2018-10-01T21:05:25.217Z,9.90
2018-10-01T21:10:28.606Z,9.70
2018-10-01T21:15:32.179Z,9.60
2018-10-01T21:20:35.501Z,9.40
2018-10-01T21:25:40.664Z,9.40
2018-10-01T21:30:44.827Z,9.30
2018-10-01T21:35:48.098Z,9.40
2018-10-01T21:40:51.378Z,9.30
2018-10-01T21:45:54.773Z,9.50
2018-10-01T21:50:58.052Z,9.50
2018-10-01T21:56:02.050Z,9.40
2018-10-01T22:01:10.749Z,9.50
2018-10-01T22:06:16.210Z,9.40
2018-10-01T22:11:19.584Z,9.40
2018-10-01T22:16:26.724Z,9.30
2018-10-01T22:21:30.105Z,9.20
2018-10-01T22:26:33.774Z,9.00
2018-10-01T22:31:37.118Z,9.00
2018-10-01T22:36:40.649Z,8.80
2018-10-01T22:41:43.979Z,8.60
2018-10-01T22:46:47.419Z,8.60
2018-10-01T22:51:50.745Z,8.60
2018-10-01T22:56:54.099Z,8.50
2018-10-01T23:01:58.134Z,8.40
2018-10-01T23:07:01.454Z,8.40
2018-10-01T23:12:04.738Z,8.30
2018-10-01T23:17:08.064Z,8.20
2018-10-01T23:22:11.330Z,8.00
2018-10-01T23:27:14.746Z,7.90
2018-10-01T23:32:18.115Z,7.70
2018-10-01T23:37:21.343Z,7.70
2018-10-01T23:42:24.664Z,7.50
2018-10-01T23:47:28.071Z,7.30
2018-10-01T23:52:31.444Z,7.20
2018-10-01T23:57:34.798Z,7.10
